createdAt,value
2023-04-29T00:00:33.338Z,99
2023-04-29T00:03:58.788Z,99
2023-04-29T00:07:23.731Z,99
2023-04-29T00:10:48.906Z,99
2023-04-29T00:14:14.148Z,99
2023-04-29T00:17:39.333Z,98
2023-04-29T00:21:04.513Z,98
2023-04-29T00:24:29.682Z,98
2023-04-29T00:27:54.871Z,98
2023-04-29T00:31:20.143Z,98
2023-04-29T00:34:45.257Z,98
2023-04-29T00:38:10.438Z,98
2023-04-29T00:41:35.660Z,98
2023-04-29T00:45:00.888Z,99
2023-04-29T00:48:26.084Z,99
2023-04-29T00:51:51.256Z,99
2023-04-29T00:55:16.472Z,99
2023-04-29T00:58:41.637Z,99
2023-04-29T01:02:06.844Z,99
2023-04-29T01:05:32.037Z,99
2023-04-29T01:08:57.222Z,99
2023-04-29T01:12:22.420Z,98
2023-04-29T01:15:47.681Z,98
2023-04-29T01:19:12.817Z,98
2023-04-29T01:22:38.042Z,98
2023-04-29T01:26:03.251Z,97
2023-04-29T01:29:28.420Z,97
2023-04-29T01:32:53.704Z,97
2023-04-29T01:36:18.853Z,97
2023-04-29T01:39:44.058Z,97
2023-04-29T01:43:09.206Z,97
2023-04-29T01:46:34.498Z,97
2023-04-29T01:49:59.607Z,97
2023-04-29T01:53:24.817Z,97
2023-04-29T01:56:50.009Z,97
2023-04-29T02:00:15.188Z,97
2023-04-29T02:03:40.581Z,97
2023-04-29T02:07:05.568Z,97
2023-04-29T02:10:30.772Z,97
2023-04-29T02:13:55.964Z,97
2023-04-29T02:17:21.172Z,97
2023-04-29T02:20:46.356Z,97
2023-04-29T02:24:11.570Z,97
2023-04-29T02:27:36.841Z,97
2023-04-29T02:31:02.075Z,97
2023-04-29T02:34:27.252Z,97
2023-04-29T02:37:52.420Z,97
2023-04-29T02:41:17.626Z,97
2023-04-29T02:44:42.834Z,97
2023-04-29T02:48:08.073Z,96
2023-04-29T02:51:33.216Z,96
2023-04-29T02:54:58.437Z,96
2023-04-29T02:58:23.640Z,96
2023-04-29T03:01:48.853Z,96
2023-04-29T03:05:14.065Z,96
2023-04-29T03:08:39.239Z,95
2023-04-29T03:12:04.437Z,95
2023-04-29T03:15:29.638Z,95
2023-04-29T03:18:54.821Z,95
2023-04-29T03:22:20.018Z,95
2023-04-29T03:25:45.191Z,96
2023-04-29T03:29:10.376Z,96
2023-04-29T03:32:35.613Z,96
2023-04-29T03:36:00.725Z,96
2023-04-29T03:39:26.082Z,96
2023-04-29T03:42:51.130Z,96
2023-04-29T03:46:16.383Z,96
2023-04-29T03:49:41.519Z,96
2023-04-29T03:53:06.735Z,95
2023-04-29T03:56:31.946Z,95
2023-04-29T03:59:57.118Z,95
2023-04-29T04:03:22.378Z,95
2023-04-29T04:06:47.482Z,95
2023-04-29T04:10:12.645Z,95
2023-04-29T04:13:37.888Z,95
2023-04-29T04:17:03.043Z,95
2023-04-29T04:20:28.607Z,95
2023-04-29T04:23:53.800Z,95
2023-04-29T04:27:18.976Z,95
2023-04-29T04:30:44.166Z,95
2023-04-29T04:34:09.336Z,95
2023-04-29T04:37:34.557Z,95
2023-04-29T04:40:59.758Z,95
2023-04-29T04:44:24.944Z,95
2023-04-29T04:47:50.801Z,95
2023-04-29T04:51:15.936Z,95
2023-04-29T04:54:41.118Z,95
2023-04-29T04:58:06.313Z,95
2023-04-29T05:01:31.582Z,95
2023-04-29T05:04:56.753Z,95
2023-04-29T05:08:21.958Z,95
2023-04-29T05:11:47.282Z,95
2023-04-29T05:15:12.533Z,95
2023-04-29T05:18:37.736Z,95
2023-04-29T05:22:03.015Z,95
2023-04-29T05:25:28.227Z,95
2023-04-29T05:28:53.538Z,95
2023-04-29T05:32:18.783Z,95
2023-04-29T05:35:43.947Z,95
2023-04-29T05:39:09.128Z,95
2023-04-29T05:42:34.273Z,96
2023-04-29T05:45:59.530Z,96
2023-04-29T05:49:24.617Z,96
2023-04-29T05:52:49.772Z,96
2023-04-29T05:56:14.958Z,96
2023-04-29T05:59:40.084Z,96
2023-04-29T06:03:05.401Z,95
2023-04-29T06:06:30.461Z,95
2023-04-29T06:09:55.621Z,96
2023-04-29T06:13:20.768Z,96
2023-04-29T06:16:46.060Z,96
2023-04-29T06:20:11.225Z,96
2023-04-29T06:23:36.427Z,96
2023-04-29T06:27:01.575Z,96
2023-04-29T06:30:26.790Z,96
2023-04-29T06:33:51.900Z,96
2023-04-29T06:37:17.099Z,96
2023-04-29T06:40:42.260Z,96
2023-04-29T06:44:07.420Z,95
2023-04-29T06:47:32.614Z,96
2023-04-29T06:50:57.759Z,96
2023-04-29T06:54:22.925Z,96
2023-04-29T06:57:48.096Z,95
2023-04-29T07:01:13.273Z,95
2023-04-29T07:04:38.549Z,95
2023-04-29T07:08:03.561Z,94
2023-04-29T07:11:28.740Z,95
2023-04-29T07:14:53.907Z,95
2023-04-29T07:18:19.068Z,95
2023-04-29T07:21:44.230Z,95
2023-04-29T07:25:09.385Z,95
2023-04-29T07:28:34.588Z,95
2023-04-29T07:31:59.760Z,94
2023-04-29T07:35:24.941Z,95
2023-04-29T07:38:50.101Z,95
2023-04-29T07:42:15.251Z,95
2023-04-29T07:45:40.494Z,95
2023-04-29T07:49:05.677Z,95
2023-04-29T07:52:30.923Z,95
2023-04-29T07:55:56.168Z,95
2023-04-29T07:59:21.396Z,95
2023-04-29T08:02:46.839Z,95
2023-04-29T08:06:11.948Z,95
2023-04-29T08:09:37.038Z,95
2023-04-29T08:13:02.254Z,96
2023-04-29T08:16:27.496Z,96
2023-04-29T08:19:52.694Z,96
2023-04-29T08:23:17.938Z,97
2023-04-29T08:26:43.151Z,97
2023-04-29T08:30:08.401Z,96
2023-04-29T08:33:33.594Z,96
2023-04-29T08:36:58.851Z,96
2023-04-29T08:40:24.096Z,96
2023-04-29T08:43:49.300Z,95
2023-04-29T08:47:14.576Z,95
2023-04-29T08:50:39.788Z,94
2023-04-29T08:54:05.032Z,94
2023-04-29T08:57:30.307Z,94
2023-04-29T09:00:55.534Z,93
2023-04-29T09:04:20.861Z,93
2023-04-29T09:07:46.001Z,92
2023-04-29T09:11:11.218Z,92
2023-04-29T09:14:36.436Z,92
2023-04-29T09:18:01.722Z,92
2023-04-29T09:21:26.946Z,92
2023-04-29T09:24:52.245Z,92
2023-04-29T09:28:17.424Z,92
2023-04-29T09:31:42.645Z,93
2023-04-29T09:35:07.812Z,93
2023-04-29T09:38:33.111Z,95
2023-04-29T09:41:58.306Z,95
2023-04-29T09:45:23.545Z,94
2023-04-29T09:48:48.805Z,94
2023-04-29T09:52:14.050Z,94
2023-04-29T09:55:39.338Z,93
2023-04-29T09:59:04.566Z,93
2023-04-29T10:02:29.843Z,93
2023-04-29T10:05:55.086Z,93
2023-04-29T10:09:20.263Z,93
2023-04-29T10:12:45.458Z,93
2023-04-29T10:16:10.624Z,93
2023-04-29T10:19:35.750Z,93
2023-04-29T10:23:00.924Z,93
2023-04-29T10:26:26.096Z,92
2023-04-29T10:29:51.302Z,92
2023-04-29T10:33:16.453Z,92
2023-04-29T10:36:41.605Z,92
2023-04-29T10:40:06.760Z,91
2023-04-29T10:43:31.961Z,90
2023-04-29T10:46:57.183Z,91
2023-04-29T10:50:22.282Z,90
2023-04-29T10:53:47.477Z,90
2023-04-29T10:57:12.654Z,90
2023-04-29T11:00:37.852Z,90
2023-04-29T11:04:03.079Z,89
2023-04-29T11:07:28.185Z,88
2023-04-29T11:10:53.338Z,89
2023-04-29T11:14:18.517Z,90
2023-04-29T11:17:43.709Z,89
2023-04-29T11:21:08.911Z,90
2023-04-29T11:24:34.056Z,91
2023-04-29T11:27:59.194Z,91
2023-04-29T11:31:25.380Z,91
2023-04-29T11:34:49.515Z,90
2023-04-29T11:38:14.680Z,90
2023-04-29T11:41:39.844Z,91
2023-04-29T11:45:05.093Z,91
2023-04-29T11:48:30.183Z,90
2023-04-29T11:51:55.363Z,90
2023-04-29T11:55:20.549Z,90
2023-04-29T11:58:45.714Z,90
2023-04-29T12:02:10.923Z,88
2023-04-29T12:05:36.102Z,88
2023-04-29T12:09:01.257Z,88
2023-04-29T12:12:26.469Z,87
2023-04-29T12:15:51.644Z,86
2023-04-29T12:19:16.793Z,87
2023-04-29T12:22:41.975Z,88
2023-04-29T12:26:07.151Z,88
2023-04-29T12:29:32.345Z,86
2023-04-29T12:32:57.545Z,85
2023-04-29T12:36:22.653Z,84
2023-04-29T12:39:47.825Z,84
2023-04-29T12:43:12.990Z,84
2023-04-29T12:46:38.242Z,82
2023-04-29T12:50:03.386Z,84
2023-04-29T12:53:28.539Z,85
2023-04-29T12:56:54.073Z,83
2023-04-29T13:00:19.261Z,83
2023-04-29T13:03:44.551Z,83
2023-04-29T13:07:09.574Z,83
2023-04-29T13:10:34.770Z,83
2023-04-29T13:13:59.949Z,84
2023-04-29T13:17:25.120Z,85
2023-04-29T13:20:52.957Z,85
2023-04-29T13:24:15.421Z,85
2023-04-29T13:27:40.578Z,85
2023-04-29T13:31:05.758Z,86
2023-04-29T13:34:30.909Z,85
2023-04-29T13:37:56.137Z,85
2023-04-29T13:41:21.223Z,85
2023-04-29T13:44:52.145Z,85
2023-04-29T13:48:32.350Z,84
2023-04-29T13:52:10.562Z,84
2023-04-29T13:55:26.194Z,84
2023-04-29T13:58:40.950Z,84
2023-04-29T14:02:21.151Z,84
2023-04-29T14:05:18.077Z,84
2023-04-29T14:08:43.217Z,84
2023-04-29T14:12:08.409Z,83
2023-04-29T14:15:33.584Z,84
2023-04-29T14:19:00.108Z,84
2023-04-29T14:22:23.882Z,85
2023-04-29T14:25:49.057Z,86
2023-04-29T14:29:14.251Z,85
2023-04-29T14:32:39.406Z,86
2023-04-29T14:36:04.568Z,85
2023-04-29T14:39:29.716Z,85
2023-04-29T14:42:54.877Z,85
2023-04-29T14:46:20.125Z,86
2023-04-29T14:49:45.232Z,86
2023-04-29T14:53:10.375Z,86
2023-04-29T14:56:35.537Z,85
2023-04-29T15:00:00.737Z,85
2023-04-29T15:03:25.988Z,85
2023-04-29T15:41:05.548Z,84
2023-04-29T15:44:30.750Z,84
2023-04-29T15:47:55.958Z,84
2023-04-29T15:51:21.152Z,84
2023-04-29T15:54:46.355Z,84
2023-04-29T15:58:11.633Z,84
2023-04-29T16:01:36.867Z,84
2023-04-29T16:05:02.047Z,84
2023-04-29T16:08:27.228Z,84
2023-04-29T16:11:52.453Z,84
2023-04-29T16:15:18.797Z,84
2023-04-29T16:18:43.806Z,84
2023-04-29T16:22:09.037Z,85
2023-04-29T16:25:34.213Z,85
2023-04-29T16:28:59.421Z,85
2023-04-29T16:32:24.708Z,85
2023-04-29T16:35:49.827Z,85
2023-04-29T16:39:15.045Z,85
2023-04-29T16:42:40.227Z,86
2023-04-29T16:46:05.447Z,85
2023-04-29T16:49:30.657Z,85
2023-04-29T16:52:55.855Z,85
2023-04-29T16:56:21.055Z,85
2023-04-29T16:59:46.240Z,85
2023-04-29T17:03:11.475Z,84
2023-04-29T17:06:36.717Z,85
2023-04-29T17:10:01.851Z,85
2023-04-29T17:13:27.064Z,85
2023-04-29T17:16:52.290Z,85
2023-04-29T17:20:17.472Z,86
2023-04-29T17:23:42.705Z,86
2023-04-29T17:27:07.892Z,86
2023-04-29T17:30:33.084Z,86
2023-04-29T17:33:58.554Z,86
2023-04-29T17:37:23.831Z,86
2023-04-29T17:40:49.092Z,86
2023-04-29T17:44:14.297Z,86
2023-04-29T17:47:39.582Z,86
2023-04-29T17:51:04.732Z,86
2023-04-29T17:54:29.930Z,86
2023-04-29T17:57:55.153Z,86
2023-04-29T18:01:20.348Z,86
2023-04-29T18:04:45.520Z,86
2023-04-29T18:08:10.706Z,85
2023-04-29T18:11:35.878Z,86
2023-04-29T18:15:01.111Z,86
2023-04-29T18:18:26.258Z,86
2023-04-29T18:21:51.462Z,86
2023-04-29T18:25:16.657Z,86
2023-04-29T18:28:41.917Z,86
2023-04-29T18:32:08.203Z,86
2023-04-29T18:35:32.323Z,86
2023-04-29T18:38:57.510Z,86
2023-04-29T18:42:22.723Z,86
2023-04-29T18:45:47.921Z,85
2023-04-29T18:49:13.106Z,85
2023-04-29T18:52:38.313Z,85
2023-04-29T18:56:03.522Z,85
2023-04-29T18:59:28.735Z,85
2023-04-29T19:02:53.964Z,85
2023-04-29T19:06:19.178Z,85
2023-04-29T19:09:44.310Z,85
2023-04-29T19:13:09.760Z,85
2023-04-29T19:16:36.850Z,85
2023-04-29T19:20:00.120Z,85
2023-04-29T19:23:25.468Z,85
2023-04-29T19:26:50.511Z,86
2023-04-29T19:30:15.724Z,85
2023-04-29T19:33:40.921Z,85
2023-04-29T19:37:06.124Z,85
2023-04-29T19:40:31.350Z,86
2023-04-29T19:43:56.509Z,86
2023-04-29T19:47:22.979Z,86
2023-04-29T19:50:47.012Z,86
2023-04-29T19:54:12.180Z,86
2023-04-29T19:57:37.409Z,87
2023-04-29T20:01:02.635Z,87
2023-04-29T20:04:27.790Z,87
2023-04-29T20:07:52.968Z,86
2023-04-29T20:11:18.196Z,86
2023-04-29T20:14:43.427Z,87
2023-04-29T20:18:08.580Z,87
2023-04-29T20:21:33.779Z,87
2023-04-29T20:24:58.999Z,87
2023-04-29T20:28:24.147Z,87
2023-04-29T20:31:49.393Z,87
2023-04-29T20:35:14.544Z,87
2023-04-29T20:38:39.740Z,88
2023-04-29T20:42:04.955Z,88
2023-04-29T20:45:30.140Z,88
2023-04-29T20:48:55.545Z,88
2023-04-29T20:52:20.708Z,87
2023-04-29T20:55:45.901Z,88
2023-04-29T20:59:11.079Z,88
2023-04-29T21:02:36.284Z,88
2023-04-29T21:06:01.573Z,88
2023-04-29T21:09:26.709Z,88
2023-04-29T21:12:51.909Z,88
2023-04-29T21:16:17.089Z,87
2023-04-29T21:19:42.284Z,88
2023-04-29T21:23:07.519Z,88
2023-04-29T21:26:32.670Z,87
2023-04-29T21:29:57.897Z,87
2023-04-29T21:33:23.092Z,87
2023-04-29T21:36:48.286Z,87
2023-04-29T21:40:13.684Z,87
2023-04-29T21:43:38.699Z,87
2023-04-29T21:47:03.982Z,87
2023-04-29T21:50:29.084Z,87
2023-04-29T21:53:54.275Z,87
2023-04-29T21:57:24.083Z,87
2023-04-29T22:00:44.671Z,87
2023-04-29T22:04:09.819Z,87
2023-04-29T22:07:35.001Z,88
2023-04-29T22:11:00.199Z,87
2023-04-29T22:14:25.413Z,87
2023-04-29T22:17:50.664Z,87
2023-04-29T22:21:15.787Z,87
2023-04-29T22:24:40.966Z,87
2023-04-29T22:28:06.167Z,87
2023-04-29T22:31:31.393Z,87
2023-04-29T22:34:58.424Z,87
2023-04-29T22:38:21.728Z,87
2023-04-29T22:41:46.958Z,87
2023-04-29T22:45:12.191Z,87
2023-04-29T22:48:37.397Z,87
2023-04-29T22:52:02.561Z,87
2023-04-29T22:55:27.755Z,87
2023-04-29T22:58:52.935Z,87
2023-04-29T23:02:18.116Z,87
2023-04-29T23:05:43.428Z,88
2023-04-29T23:09:08.521Z,88
2023-04-29T23:12:33.709Z,88
2023-04-29T23:15:58.927Z,87
2023-04-29T23:19:24.162Z,88
2023-04-29T23:22:49.358Z,88
2023-04-29T23:26:14.551Z,88
2023-04-29T23:29:39.767Z,88
2023-04-29T23:33:05.015Z,88
2023-04-29T23:36:30.213Z,87
2023-04-29T23:39:56.793Z,88
2023-04-29T23:43:20.577Z,88
2023-04-29T23:46:45.809Z,88
2023-04-29T23:50:10.997Z,88
2023-04-29T23:53:36.211Z,88
2023-04-29T23:57:01.470Z,88
